createdAt,value
2022-11-06T00:00:44.426Z,9.40
2022-11-06T00:03:13.288Z,9.30
2022-11-06T00:06:00.639Z,9.30
2022-11-06T00:08:31.862Z,9.30
2022-11-06T00:11:00.997Z,9.40
2022-11-06T00:13:32.339Z,9.40
2022-11-06T00:16:05.165Z,9.30
2022-11-06T00:18:34.232Z,9.20
2022-11-06T00:21:08.927Z,9.30
2022-11-06T00:23:37.684Z,9.30
2022-11-06T00:26:08.289Z,9.30
2022-11-06T00:28:38.924Z,9.20
2022-11-06T00:31:09.013Z,9.30
2022-11-06T00:33:38.337Z,9.20
2022-11-06T00:36:08.913Z,9.20
2022-11-06T00:38:37.542Z,9.30
2022-11-06T00:41:07.563Z,9.20
2022-11-06T00:43:37.981Z,9.20
2022-11-06T00:46:08.348Z,9.20
2022-11-06T00:48:38.173Z,9.10
2022-11-06T00:51:07.657Z,9.00
2022-11-06T00:53:36.767Z,9.00
2022-11-06T00:56:06.992Z,9.10
2022-11-06T00:58:37.411Z,9.00
2022-11-06T01:01:10.774Z,9.00
2022-11-06T01:03:40.551Z,9.00
2022-11-06T01:06:10.946Z,8.90
2022-11-06T01:08:40.306Z,8.90
2022-11-06T01:11:10.844Z,9.00
2022-11-06T01:13:41.308Z,9.00
2022-11-06T01:16:12.801Z,9.00
2022-11-06T01:18:43.208Z,9.00
2022-11-06T01:21:13.616Z,8.90
2022-11-06T01:23:43.045Z,8.90
2022-11-06T01:26:13.310Z,8.80
2022-11-06T01:28:43.918Z,8.80
2022-11-06T01:31:14.894Z,8.80
2022-11-06T01:33:44.322Z,8.80
2022-11-06T01:36:14.053Z,8.70
2022-11-06T01:38:43.215Z,8.60
2022-11-06T01:41:14.729Z,8.60
2022-11-06T01:43:51.068Z,8.50
2022-11-06T01:46:20.915Z,8.50
2022-11-06T01:48:53.729Z,8.40
2022-11-06T01:51:25.693Z,8.40
2022-11-06T01:53:54.958Z,8.40
2022-11-06T01:56:24.684Z,8.20
2022-11-06T01:58:57.837Z,8.20
2022-11-06T02:01:26.817Z,8.20
2022-11-06T02:04:02.390Z,8.10
2022-11-06T02:06:30.988Z,8.00
2022-11-06T02:09:19.010Z,8.00
2022-11-06T02:11:52.213Z,7.90
2022-11-06T02:14:38.863Z,7.90
2022-11-06T02:17:14.249Z,7.80
2022-11-06T02:19:55.974Z,7.70
2022-11-06T02:22:47.231Z,7.60
2022-11-06T02:25:20.887Z,7.60
2022-11-06T02:27:58.313Z,7.50
2022-11-06T02:30:27.061Z,7.50
2022-11-06T02:33:00.160Z,7.40
2022-11-06T02:35:32.712Z,7.40
2022-11-06T02:38:06.817Z,7.30
2022-11-06T02:40:39.779Z,7.20
2022-11-06T02:43:11.418Z,7.20
2022-11-06T02:45:46.847Z,7.10
2022-11-06T02:48:18.713Z,7.10
2022-11-06T02:50:51.206Z,7.00
2022-11-06T02:53:25.088Z,7.00
2022-11-06T02:55:58.159Z,7.00
2022-11-06T02:58:34.532Z,7.00
2022-11-06T03:01:09.254Z,7.00
2022-11-06T03:03:43.470Z,6.90
2022-11-06T03:06:14.940Z,6.90
2022-11-06T03:08:47.596Z,6.90
2022-11-06T03:11:21.675Z,6.90
2022-11-06T03:13:57.969Z,6.80
2022-11-06T03:16:34.868Z,6.80
2022-11-06T03:19:12.684Z,6.80
2022-11-06T03:21:54.898Z,6.80
2022-11-06T03:24:32.773Z,6.70
2022-11-06T03:27:07.153Z,6.70
2022-11-06T03:29:42.075Z,6.60
2022-11-06T03:32:19.524Z,6.60
2022-11-06T03:34:54.085Z,6.60
2022-11-06T03:37:29.780Z,6.50
2022-11-06T03:40:02.926Z,6.40
2022-11-06T03:42:32.467Z,6.40
2022-11-06T03:45:07.899Z,6.30
2022-11-06T03:47:40.079Z,6.30
2022-11-06T03:50:15.529Z,6.20
2022-11-06T03:52:51.047Z,6.10
2022-11-06T03:55:24.041Z,6.00
2022-11-06T03:57:55.364Z,5.90
2022-11-06T04:00:25.785Z,5.80
2022-11-06T04:03:05.216Z,5.80
2022-11-06T04:05:39.663Z,5.70
2022-11-06T04:08:28.672Z,5.60
2022-11-06T04:11:19.318Z,5.50
2022-11-06T04:13:58.661Z,5.50
2022-11-06T04:16:34.098Z,5.40
2022-11-06T04:19:02.958Z,5.30
2022-11-06T04:21:53.876Z,5.30
2022-11-06T04:24:51.665Z,5.20
2022-11-06T04:27:30.958Z,5.10
2022-11-06T04:30:07.613Z,5.10
2022-11-06T04:33:03.033Z,5.00
2022-11-06T04:35:44.709Z,4.90
2022-11-06T04:38:19.765Z,4.80
2022-11-06T04:40:55.510Z,4.80
2022-11-06T04:43:30.563Z,4.80
2022-11-06T04:46:01.537Z,4.70
2022-11-06T04:48:32.533Z,4.70
2022-11-06T04:51:03.463Z,4.60
2022-11-06T04:53:33.659Z,4.60
2022-11-06T04:56:08.136Z,4.60
2022-11-06T04:58:36.712Z,4.50
2022-11-06T05:01:05.619Z,4.50
2022-11-06T05:03:36.009Z,4.40
2022-11-06T05:06:04.887Z,4.40
2022-11-06T05:08:33.618Z,4.30
2022-11-06T05:11:02.290Z,4.30
2022-11-06T05:13:30.957Z,4.30
2022-11-06T05:16:00.718Z,4.30
2022-11-06T05:18:30.023Z,4.30
2022-11-06T05:21:20.074Z,4.20
2022-11-06T05:23:48.771Z,4.20
2022-11-06T05:26:17.866Z,4.20
2022-11-06T05:28:46.658Z,4.10
2022-11-06T05:31:15.257Z,4.10
2022-11-06T05:33:43.933Z,4.00
2022-11-06T05:36:14.270Z,4.00
2022-11-06T05:38:42.878Z,4.00
2022-11-06T05:41:11.837Z,3.90
2022-11-06T05:43:40.719Z,3.90
2022-11-06T05:46:29.643Z,3.90
2022-11-06T05:48:58.137Z,3.90
2022-11-06T05:51:28.269Z,3.90
2022-11-06T05:53:57.075Z,3.90
2022-11-06T05:56:25.888Z,3.90
2022-11-06T05:58:54.690Z,3.90
2022-11-06T06:01:23.334Z,3.80
2022-11-06T06:03:52.060Z,3.90
2022-11-06T06:06:22.405Z,3.90
2022-11-06T06:08:52.434Z,3.90
2022-11-06T06:11:21.069Z,3.90
2022-11-06T06:13:49.725Z,3.90
2022-11-06T06:16:18.369Z,3.90
2022-11-06T06:18:46.952Z,3.90
2022-11-06T06:21:15.639Z,4.00
2022-11-06T06:23:44.298Z,4.10
2022-11-06T06:26:14.508Z,4.20
2022-11-06T06:28:43.102Z,4.20
2022-11-06T06:31:13.055Z,4.30
2022-11-06T06:33:41.677Z,4.40
2022-11-06T06:36:11.204Z,4.50
2022-11-06T06:38:39.897Z,4.60
2022-11-06T06:41:10.428Z,4.70
2022-11-06T06:43:40.437Z,4.80
2022-11-06T06:46:09.350Z,4.90
2022-11-06T06:48:38.095Z,5.00
2022-11-06T06:51:08.143Z,5.20
2022-11-06T06:53:37.626Z,5.30
2022-11-06T06:56:06.764Z,5.40
2022-11-06T06:58:35.833Z,5.50
2022-11-06T07:01:10.530Z,5.60
2022-11-06T07:03:40.342Z,5.80
2022-11-06T07:06:09.320Z,5.90
2022-11-06T07:08:37.904Z,6.00
2022-11-06T07:11:08.681Z,6.10
2022-11-06T07:13:37.893Z,6.20
2022-11-06T07:16:09.669Z,6.40
2022-11-06T07:18:39.525Z,6.50
2022-11-06T07:21:09.993Z,6.60
2022-11-06T07:23:39.400Z,6.60
2022-11-06T07:26:08.496Z,6.70
2022-11-06T07:28:40.456Z,6.70
2022-11-06T07:31:12.633Z,6.80
2022-11-06T07:33:41.254Z,6.90
2022-11-06T07:36:12.057Z,7.10
2022-11-06T07:38:42.592Z,7.20
2022-11-06T07:41:13.707Z,7.40
2022-11-06T07:43:42.688Z,7.60
2022-11-06T07:46:14.624Z,7.60
2022-11-06T07:48:43.548Z,7.60
2022-11-06T07:51:13.113Z,7.60
2022-11-06T07:53:41.983Z,7.60
2022-11-06T07:56:10.974Z,7.50
2022-11-06T07:58:40.162Z,7.50
2022-11-06T08:01:17.955Z,7.50
2022-11-06T08:03:49.076Z,7.50
2022-11-06T08:06:17.834Z,7.60
2022-11-06T08:08:46.515Z,7.60
2022-11-06T08:11:18.428Z,7.80
2022-11-06T08:13:47.468Z,7.90
2022-11-06T08:16:16.749Z,8.00
2022-11-06T08:18:45.548Z,8.00
2022-11-06T08:21:15.658Z,8.10
2022-11-06T08:23:49.275Z,8.20
2022-11-06T08:26:18.497Z,8.30
2022-11-06T08:28:47.534Z,8.40
2022-11-06T08:31:16.191Z,8.30
2022-11-06T08:33:44.818Z,8.30
2022-11-06T08:36:14.924Z,8.40
2022-11-06T08:38:43.571Z,8.40
2022-11-06T08:41:13.598Z,8.40
2022-11-06T08:43:42.529Z,8.40
2022-11-06T08:46:12.164Z,8.40
2022-11-06T08:48:41.088Z,8.50
2022-11-06T08:51:10.146Z,8.70
2022-11-06T08:53:40.257Z,8.80
2022-11-06T08:56:09.674Z,8.90
2022-11-06T08:58:38.358Z,9.00
2022-11-06T09:01:07.262Z,9.00
2022-11-06T09:03:35.906Z,9.10
2022-11-06T09:06:07.288Z,9.10
2022-11-06T09:08:36.208Z,9.20
2022-11-06T09:11:10.268Z,9.40
2022-11-06T09:13:38.906Z,9.50
2022-11-06T09:16:15.621Z,9.70
2022-11-06T09:18:45.043Z,9.90
2022-11-06T09:21:13.695Z,10.00
2022-11-06T09:23:42.385Z,10.10
2022-11-06T09:26:12.413Z,10.20
2022-11-06T09:28:41.061Z,10.40
2022-11-06T09:31:10.205Z,10.40
2022-11-06T09:33:39.253Z,10.60
2022-11-06T09:36:08.770Z,10.70
2022-11-06T09:38:37.413Z,10.80
2022-11-06T09:41:07.028Z,10.80
2022-11-06T09:44:05.181Z,10.80
2022-11-06T09:46:37.233Z,10.80
2022-11-06T09:49:13.874Z,10.70
2022-11-06T09:51:50.188Z,10.70
2022-11-06T09:54:25.081Z,10.70
2022-11-06T09:56:59.852Z,10.60
2022-11-06T10:00:06.689Z,10.50
2022-11-06T10:02:43.642Z,10.40
2022-11-06T10:05:19.641Z,10.40
2022-11-06T10:07:51.891Z,10.30
2022-11-06T10:10:23.650Z,10.40
2022-11-06T10:13:17.319Z,10.50
2022-11-06T10:15:50.829Z,10.60
2022-11-06T10:18:31.318Z,10.70
2022-11-06T10:21:07.590Z,10.80
2022-11-06T10:23:45.664Z,10.90
2022-11-06T10:26:17.307Z,11.10
2022-11-06T10:29:17.830Z,11.30
2022-11-06T10:31:55.448Z,11.40
2022-11-06T10:34:31.143Z,11.50
2022-11-06T10:37:03.429Z,11.70
2022-11-06T10:39:35.182Z,11.70
2022-11-06T10:42:07.903Z,11.50
2022-11-06T10:44:40.758Z,11.20
2022-11-06T10:47:18.443Z,10.80
2022-11-06T10:49:51.373Z,10.40
2022-11-06T10:52:39.246Z,10.10
2022-11-06T10:55:36.082Z,9.80
2022-11-06T10:58:07.461Z,9.50
2022-11-06T11:00:37.360Z,9.30
2022-11-06T11:03:09.481Z,9.20
2022-11-06T11:05:43.283Z,9.10
2022-11-06T11:08:37.712Z,9.10
2022-11-06T11:11:11.486Z,9.20
2022-11-06T11:13:40.186Z,9.30
2022-11-06T11:16:15.807Z,9.30
2022-11-06T11:18:44.944Z,9.30
2022-11-06T11:21:26.437Z,9.30
2022-11-06T11:24:08.391Z,9.30
2022-11-06T11:26:40.857Z,9.20
2022-11-06T11:29:17.366Z,9.20
2022-11-06T11:31:51.706Z,9.20
2022-11-06T11:34:24.613Z,9.20
2022-11-06T11:36:58.746Z,9.20
2022-11-06T11:39:31.229Z,9.20
2022-11-06T11:42:24.175Z,9.20
2022-11-06T11:45:23.598Z,9.20
2022-11-06T11:47:53.466Z,9.10
2022-11-06T11:50:29.441Z,9.10
2022-11-06T11:53:09.685Z,9.00
2022-11-06T11:55:42.639Z,8.90
2022-11-06T11:58:22.413Z,8.90
2022-11-06T12:00:54.887Z,8.80
2022-11-06T12:03:27.205Z,8.70
2022-11-06T12:06:05.331Z,8.70
2022-11-06T12:08:36.201Z,8.80
2022-11-06T12:11:06.249Z,8.80
2022-11-06T12:13:38.764Z,8.80
2022-11-06T12:16:12.436Z,8.80
2022-11-06T12:18:44.305Z,8.80
2022-11-06T12:21:17.183Z,8.80
2022-11-06T12:23:53.545Z,8.80
2022-11-06T12:26:28.539Z,8.80
2022-11-06T12:29:46.103Z,8.80
2022-11-06T12:32:24.082Z,8.80
2022-11-06T12:35:00.958Z,8.80
2022-11-06T12:37:40.593Z,8.90
2022-11-06T12:40:25.475Z,8.90
2022-11-06T12:43:05.369Z,9.00
2022-11-06T12:45:47.720Z,8.90
2022-11-06T12:48:27.030Z,9.00
2022-11-06T12:51:06.545Z,9.00
2022-11-06T12:53:50.543Z,9.00
2022-11-06T12:56:25.337Z,9.00
2022-11-06T12:59:11.364Z,9.10
2022-11-06T13:01:56.177Z,9.00
2022-11-06T13:04:37.269Z,9.00
2022-11-06T13:07:37.003Z,9.00
2022-11-06T13:10:21.519Z,9.10
2022-11-06T13:13:01.276Z,9.10
2022-11-06T13:15:35.387Z,9.00
2022-11-06T13:18:14.935Z,9.10
2022-11-06T13:20:51.637Z,9.00
2022-11-06T13:23:26.845Z,9.00
2022-11-06T13:26:02.814Z,8.90
2022-11-06T13:28:36.551Z,8.80
2022-11-06T13:31:08.885Z,8.70
2022-11-06T13:33:44.622Z,8.70
2022-11-06T13:36:14.232Z,8.60
2022-11-06T13:38:49.032Z,8.60
2022-11-06T13:41:22.925Z,8.50
2022-11-06T13:43:58.700Z,8.40
2022-11-06T13:46:36.396Z,8.50
2022-11-06T13:49:16.509Z,8.50
2022-11-06T13:51:52.729Z,8.50
2022-11-06T13:54:36.020Z,8.40
2022-11-06T13:57:36.816Z,8.40
2022-11-06T14:00:19.340Z,8.30
2022-11-06T14:03:31.895Z,8.20
2022-11-06T14:06:04.224Z,8.20
2022-11-06T14:08:39.880Z,8.10
2022-11-06T14:11:14.256Z,8.10
2022-11-06T14:13:43.694Z,8.10
2022-11-06T14:16:29.423Z,8.10
2022-11-06T14:19:00.739Z,8.10
2022-11-06T14:21:48.551Z,8.10
2022-11-06T14:24:34.381Z,8.00
2022-11-06T14:27:07.175Z,7.90
2022-11-06T14:30:00.992Z,7.90
2022-11-06T14:32:45.370Z,7.80
2022-11-06T14:35:51.084Z,7.70
2022-11-06T14:38:35.564Z,7.50
2022-11-06T14:41:26.856Z,7.40
2022-11-06T14:43:58.321Z,7.30
2022-11-06T14:46:27.082Z,7.20
2022-11-06T14:49:06.891Z,7.20
2022-11-06T14:51:36.470Z,7.10
2022-11-06T14:54:24.883Z,7.00
2022-11-06T14:56:55.858Z,6.90
2022-11-06T14:59:33.219Z,6.80
2022-11-06T15:02:06.530Z,6.70
2022-11-06T15:04:37.753Z,6.60
2022-11-06T15:07:11.657Z,6.50
2022-11-06T15:09:48.163Z,6.50
2022-11-06T15:12:16.917Z,6.40
2022-11-06T15:15:00.655Z,6.30
2022-11-06T15:17:36.312Z,6.30
2022-11-06T15:20:24.931Z,6.10
2022-11-06T15:23:06.693Z,6.10
2022-11-06T15:25:36.239Z,5.90
2022-11-06T15:28:09.623Z,5.90
2022-11-06T15:30:48.086Z,5.90
2022-11-06T15:33:22.002Z,5.80
2022-11-06T15:35:52.477Z,5.80
2022-11-06T15:38:25.340Z,5.70
2022-11-06T15:40:56.379Z,5.60
2022-11-06T15:43:31.923Z,5.60
2022-11-06T15:46:09.137Z,5.50
2022-11-06T15:48:38.403Z,5.40
2022-11-06T15:51:22.396Z,5.40
2022-11-06T15:53:51.013Z,5.40
2022-11-06T15:56:23.467Z,5.40
2022-11-06T15:59:08.329Z,5.30
2022-11-06T16:01:37.491Z,5.30
2022-11-06T16:04:15.863Z,5.20
2022-11-06T16:06:47.757Z,5.20
2022-11-06T16:09:20.399Z,5.20
2022-11-06T16:11:52.322Z,5.20
2022-11-06T16:14:22.425Z,5.20
2022-11-06T16:16:53.178Z,5.10
2022-11-06T16:19:31.459Z,5.10
2022-11-06T16:22:07.641Z,5.00
2022-11-06T16:24:42.748Z,4.90
2022-11-06T16:27:12.684Z,4.90
2022-11-06T16:29:46.132Z,4.90
2022-11-06T16:32:18.875Z,4.90
2022-11-06T16:34:48.814Z,4.80
2022-11-06T16:37:38.917Z,4.80
2022-11-06T16:40:44.451Z,4.80
2022-11-06T16:43:16.598Z,4.80
2022-11-06T16:46:05.615Z,4.80
2022-11-06T16:48:38.314Z,4.70
2022-11-06T16:51:13.075Z,4.70
2022-11-06T16:53:56.932Z,4.70
2022-11-06T16:56:28.655Z,4.60
2022-11-06T16:59:04.219Z,4.70
2022-11-06T17:01:45.354Z,4.60
2022-11-06T17:04:24.311Z,4.50
2022-11-06T17:06:55.549Z,4.50
2022-11-06T17:09:35.762Z,4.40
2022-11-06T17:12:06.596Z,4.40
2022-11-06T17:14:35.157Z,4.40
2022-11-06T17:17:05.207Z,4.40
2022-11-06T17:19:34.314Z,4.30
2022-11-06T17:22:03.144Z,4.30
2022-11-06T17:24:37.594Z,4.20
2022-11-06T17:27:07.569Z,4.20
2022-11-06T17:29:37.357Z,4.20
2022-11-06T17:32:09.423Z,4.10
2022-11-06T17:34:38.149Z,4.00
2022-11-06T17:37:09.698Z,4.00
2022-11-06T17:39:40.092Z,4.00
2022-11-06T17:42:08.788Z,3.90
2022-11-06T17:44:38.535Z,3.80
2022-11-06T17:47:07.556Z,3.80
2022-11-06T17:49:36.323Z,3.70
2022-11-06T17:52:05.172Z,3.70
2022-11-06T17:54:37.425Z,3.60
2022-11-06T17:57:08.815Z,3.60
2022-11-06T17:59:39.949Z,3.60
2022-11-06T18:02:14.934Z,3.50
2022-11-06T18:04:43.924Z,3.50
2022-11-06T18:07:12.577Z,3.50
2022-11-06T18:09:41.174Z,3.50
2022-11-06T18:12:14.764Z,3.40
2022-11-06T18:14:43.454Z,3.40
2022-11-06T18:17:12.405Z,3.40
2022-11-06T18:19:41.948Z,3.40
2022-11-06T18:22:10.573Z,3.40
2022-11-06T18:24:40.354Z,3.30
2022-11-06T18:27:10.417Z,3.30
2022-11-06T18:29:39.052Z,3.20
2022-11-06T18:32:08.017Z,3.20
2022-11-06T18:34:36.684Z,3.20
2022-11-06T18:37:05.702Z,3.20
2022-11-06T18:39:41.728Z,3.10
2022-11-06T18:42:11.804Z,3.10
2022-11-06T18:44:41.492Z,3.00
2022-11-06T18:47:10.146Z,3.00
2022-11-06T18:49:39.013Z,3.00
2022-11-06T18:52:07.676Z,3.00
2022-11-06T18:54:36.368Z,3.00
2022-11-06T18:57:05.126Z,3.00
2022-11-06T18:59:35.273Z,2.90
2022-11-06T19:02:04.104Z,2.90
2022-11-06T19:04:32.950Z,2.90
2022-11-06T19:07:01.807Z,2.90
2022-11-06T19:09:31.448Z,2.80
2022-11-06T19:12:00.220Z,2.80
2022-11-06T19:14:28.881Z,2.80
2022-11-06T19:16:59.092Z,2.80
2022-11-06T19:19:27.804Z,2.70
2022-11-06T19:21:56.479Z,2.70
2022-11-06T19:24:25.248Z,2.70
2022-11-06T19:26:53.860Z,2.70
2022-11-06T19:29:23.218Z,2.60
2022-11-06T19:31:53.253Z,2.60
2022-11-06T19:34:25.669Z,2.60
2022-11-06T19:36:55.901Z,2.60
2022-11-06T19:39:26.687Z,2.60
2022-11-06T19:41:55.611Z,2.60
2022-11-06T19:44:24.439Z,2.70
2022-11-06T19:46:54.001Z,2.80
2022-11-06T19:49:24.093Z,2.80
2022-11-06T19:51:52.911Z,2.90
2022-11-06T19:54:21.669Z,2.90
2022-11-06T19:57:27.406Z,3.00
2022-11-06T19:59:43.726Z,3.00
2022-11-06T20:02:13.853Z,3.00
2022-11-06T20:04:44.014Z,3.20
2022-11-06T20:07:12.726Z,3.30
2022-11-06T20:09:41.603Z,3.20
2022-11-06T20:12:13.005Z,3.20
2022-11-06T20:14:41.690Z,3.20
2022-11-06T20:17:10.337Z,3.10
2022-11-06T20:19:38.917Z,3.00
2022-11-06T20:22:09.140Z,3.00
2022-11-06T20:24:38.084Z,3.00
2022-11-06T20:27:11.160Z,3.00
2022-11-06T20:29:40.810Z,2.90
2022-11-06T20:32:17.712Z,2.90
2022-11-06T20:34:47.711Z,2.80
2022-11-06T20:37:17.699Z,2.70
2022-11-06T20:39:46.267Z,2.70
2022-11-06T20:42:15.137Z,2.60
2022-11-06T20:44:43.810Z,2.60
2022-11-06T20:47:12.564Z,2.50
2022-11-06T20:49:43.203Z,2.50
2022-11-06T20:52:14.050Z,2.50
2022-11-06T20:54:47.514Z,2.40
2022-11-06T20:57:24.725Z,2.40
2022-11-06T20:59:53.314Z,2.40
2022-11-06T21:02:27.821Z,2.30
2022-11-06T21:04:56.706Z,2.30
2022-11-06T21:07:25.424Z,2.30
2022-11-06T21:09:55.698Z,2.30
2022-11-06T21:12:25.769Z,2.30
2022-11-06T21:14:54.553Z,2.20
2022-11-06T21:17:23.265Z,2.20
2022-11-06T21:19:52.230Z,2.20
2022-11-06T21:22:20.917Z,2.10
2022-11-06T21:24:49.538Z,2.10
2022-11-06T21:27:19.544Z,2.10
2022-11-06T21:29:48.108Z,2.00
2022-11-06T21:32:16.713Z,2.00
2022-11-06T21:34:45.533Z,2.00
2022-11-06T21:37:14.627Z,2.00
2022-11-06T21:39:43.322Z,2.00
2022-11-06T21:42:12.155Z,2.00
2022-11-06T21:44:42.363Z,2.00
2022-11-06T21:47:13.627Z,2.00
2022-11-06T21:49:55.973Z,2.00
2022-11-06T21:52:44.902Z,2.00
2022-11-06T21:55:30.822Z,2.00
2022-11-06T21:57:59.678Z,2.10
2022-11-06T22:00:30.405Z,2.00
2022-11-06T22:02:59.057Z,2.00
2022-11-06T22:05:27.679Z,2.00
2022-11-06T22:07:56.564Z,2.00
2022-11-06T22:10:25.366Z,2.00
2022-11-06T22:12:54.008Z,1.90
2022-11-06T22:15:22.845Z,1.90
2022-11-06T22:17:56.549Z,1.90
2022-11-06T22:20:25.858Z,1.90
2022-11-06T22:22:54.539Z,1.90
2022-11-06T22:25:25.545Z,1.90
2022-11-06T22:27:58.157Z,1.90
2022-11-06T22:30:26.833Z,1.80
2022-11-06T22:32:57.099Z,1.90
2022-11-06T22:35:32.087Z,1.80
2022-11-06T22:38:00.862Z,1.80
2022-11-06T22:40:29.473Z,1.70
2022-11-06T22:43:06.356Z,1.70
2022-11-06T22:45:35.417Z,1.60
2022-11-06T22:48:06.000Z,1.60
2022-11-06T22:50:36.476Z,1.60
2022-11-06T22:53:05.206Z,1.50
2022-11-06T22:55:37.253Z,1.50
2022-11-06T22:58:09.528Z,1.50
2022-11-06T23:00:38.226Z,1.40
2022-11-06T23:03:08.572Z,1.40
2022-11-06T23:05:41.087Z,1.40
2022-11-06T23:08:26.643Z,1.40
2022-11-06T23:10:56.195Z,1.40
2022-11-06T23:13:25.311Z,1.40
2022-11-06T23:16:03.800Z,1.40
2022-11-06T23:18:35.655Z,1.40
2022-11-06T23:21:04.783Z,1.40
2022-11-06T23:23:33.401Z,1.40
2022-11-06T23:26:12.360Z,1.40
2022-11-06T23:28:41.022Z,1.30
2022-11-06T23:31:10.999Z,1.20
2022-11-06T23:33:41.190Z,1.20
2022-11-06T23:36:12.643Z,1.20
2022-11-06T23:38:42.932Z,1.10
2022-11-06T23:41:32.648Z,1.00
2022-11-06T23:44:01.741Z,1.00
2022-11-06T23:46:32.351Z,1.10
2022-11-06T23:49:02.411Z,1.00
2022-11-06T23:51:31.067Z,0.90
2022-11-06T23:54:04.115Z,0.90
2022-11-06T23:56:36.667Z,0.90
2022-11-06T23:59:05.460Z,0.90
